sensor_id;sensor_type;location;lat;lon;timestamp;pressure;altitude;pressure_sealevel;temperature;humidity
61474;BME280;53694;49.784;30.150;2023-02-13T00:00:36;101074.31;;;-2.94;66.77
61474;BME280;53694;49.784;30.150;2023-02-13T00:01:38;101085.67;;;-2.92;66.73
61474;BME280;53694;49.784;30.150;2023-02-13T00:02:40;101080.05;;;-2.91;66.75
61474;BME280;53694;49.784;30.150;2023-02-13T00:03:41;101086.02;;;-2.89;66.72
61474;BME280;53694;49.784;30.150;2023-02-13T00:04:43;101080.39;;;-2.87;66.70
61474;BME280;53694;49.784;30.150;2023-02-13T00:05:44;101076.64;;;-2.86;66.71
61474;BME280;53694;49.784;30.150;2023-02-13T00:06:46;101077.23;;;-2.84;66.70
61474;BME280;53694;49.784;30.150;2023-02-13T00:07:48;101078.05;;;-2.84;66.74
61474;BME280;53694;49.784;30.150;2023-02-13T00:08:49;101070.80;;;-2.83;66.71
61474;BME280;53694;49.784;30.150;2023-02-13T00:09:51;101072.42;;;-2.82;66.69
61474;BME280;53694;49.784;30.150;2023-02-13T00:10:52;101074.05;;;-2.81;66.70
61474;BME280;53694;49.784;30.150;2023-02-13T00:11:54;101066.80;;;-2.81;66.68
61474;BME280;53694;49.784;30.150;2023-02-13T00:12:55;101070.33;;;-2.80;66.71
61474;BME280;53694;49.784;30.150;2023-02-13T00:13:57;101068.20;;;-2.78;66.66
61474;BME280;53694;49.784;30.150;2023-02-13T00:14:59;101066.11;;;-2.76;66.64
61474;BME280;53694;49.784;30.150;2023-02-13T00:16:02;101070.44;;;-2.75;66.61
61474;BME280;53694;49.784;30.150;2023-02-13T00:17:05;101069.12;;;-2.72;66.66
61474;BME280;53694;49.784;30.150;2023-02-13T00:18:07;101065.41;;;-2.71;66.62
61474;BME280;53694;49.784;30.150;2023-02-13T00:19:08;101060.83;;;-2.71;66.60
61474;BME280;53694;49.784;30.150;2023-02-13T00:20:11;101057.89;;;-2.69;66.60
61474;BME280;53694;49.784;30.150;2023-02-13T00:21:13;101053.92;;;-2.67;66.59
61474;BME280;53694;49.784;30.150;2023-02-13T00:22:15;101056.84;;;-2.68;66.53
61474;BME280;53694;49.784;30.150;2023-02-13T00:23:16;101056.61;;;-2.67;66.67
61474;BME280;53694;49.784;30.150;2023-02-13T00:24:18;101057.17;;;-2.65;66.64
61474;BME280;53694;49.784;30.150;2023-02-13T00:25:19;101053.11;;;-2.67;66.60
61474;BME280;53694;49.784;30.150;2023-02-13T00:26:21;101053.92;;;-2.67;66.64
61474;BME280;53694;49.784;30.150;2023-02-13T00:27:23;101058.49;;;-2.67;66.64
61474;BME280;53694;49.784;30.150;2023-02-13T00:28:24;101049.58;;;-2.68;66.69
61474;BME280;53694;49.784;30.150;2023-02-13T00:29:26;101054.14;;;-2.68;66.74
61474;BME280;53694;49.784;30.150;2023-02-13T00:30:28;101051.45;;;-2.68;66.79
61474;BME280;53694;49.784;30.150;2023-02-13T00:31:29;101038.26;;;-2.70;66.88
61474;BME280;53694;49.784;30.150;2023-02-13T00:32:31;101053.58;;;-2.70;66.87
61474;BME280;53694;49.784;30.150;2023-02-13T00:33:33;101048.20;;;-2.70;67.00
61474;BME280;53694;49.784;30.150;2023-02-13T00:34:34;101047.39;;;-2.71;67.03
61474;BME280;53694;49.784;30.150;2023-02-13T00:35:36;101045.73;;;-2.72;67.02
61474;BME280;53694;49.784;30.150;2023-02-13T00:36:38;101048.42;;;-2.72;67.11
61474;BME280;53694;49.784;30.150;2023-02-13T00:37:39;101038.73;;;-2.73;67.13
61474;BME280;53694;49.784;30.150;2023-02-13T00:38:41;101044.11;;;-2.73;67.21
61474;BME280;53694;49.784;30.150;2023-02-13T00:39:43;101045.17;;;-2.74;67.35
61474;BME280;53694;49.784;30.150;2023-02-13T00:40:45;101040.85;;;-2.75;67.36
61474;BME280;53694;49.784;30.150;2023-02-13T00:41:46;101045.17;;;-2.74;67.39
61474;BME280;53694;49.784;30.150;2023-02-13T00:42:48;101042.73;;;-2.75;67.41
61474;BME280;53694;49.784;30.150;2023-02-13T00:43:49;101040.26;;;-2.77;67.60
61474;BME280;53694;49.784;30.150;2023-02-13T00:44:52;101049.98;;;-2.76;67.64
61474;BME280;53694;49.784;30.150;2023-02-13T00:45:53;101043.77;;;-2.77;67.61
61474;BME280;53694;49.784;30.150;2023-02-13T00:46:55;101040.26;;;-2.77;67.61
61474;BME280;53694;49.784;30.150;2023-02-13T00:47:57;101040.85;;;-2.75;67.60
61474;BME280;53694;49.784;30.150;2023-02-13T00:48:58;101036.53;;;-2.76;67.63
61474;BME280;53694;49.784;30.150;2023-02-13T00:49:59;101043.55;;;-2.75;67.61
61474;BME280;53694;49.784;30.150;2023-02-13T00:51:02;101033.84;;;-2.76;67.71
61474;BME280;53694;49.784;30.150;2023-02-13T00:52:04;101028.47;;;-2.76;67.74
61474;BME280;53694;49.784;30.150;2023-02-13T00:53:05;101032.78;;;-2.75;67.78
61474;BME280;53694;49.784;30.150;2023-02-13T00:54:07;101033.84;;;-2.76;67.80
61474;BME280;53694;49.784;30.150;2023-02-13T00:55:08;101031.16;;;-2.76;67.79
61474;BME280;53694;49.784;30.150;2023-02-13T00:56:10;101029.50;;;-2.77;67.84
61474;BME280;53694;49.784;30.150;2023-02-13T00:57:11;101029.50;;;-2.77;67.88
61474;BME280;53694;49.784;30.150;2023-02-13T00:58:13;101029.50;;;-2.77;67.86
61474;BME280;53694;49.784;30.150;2023-02-13T00:59:15;101032.19;;;-2.77;67.89
61474;BME280;53694;49.784;30.150;2023-02-13T01:00:18;101035.69;;;-2.77;67.90
61474;BME280;53694;49.784;30.150;2023-02-13T01:01:21;101028.47;;;-2.76;67.95
61474;BME280;53694;49.784;30.150;2023-02-13T01:02:22;101036.53;;;-2.76;68.04
61474;BME280;53694;49.784;30.150;2023-02-13T01:03:25;101042.95;;;-2.77;68.06
61474;BME280;53694;49.784;30.150;2023-02-13T01:04:26;101042.14;;;-2.78;68.02
61474;BME280;53694;49.784;30.150;2023-02-13T01:05:28;101038.63;;;-2.78;68.09
61474;BME280;53694;49.784;30.150;2023-02-13T01:06:30;101046.70;;;-2.78;68.20
61474;BME280;53694;49.784;30.150;2023-02-13T01:07:31;101038.88;;;-2.80;68.12
61474;BME280;53694;49.784;30.150;2023-02-13T01:08:33;101034.53;;;-2.81;68.22
61474;BME280;53694;49.784;30.150;2023-02-13T01:09:35;101041.79;;;-2.81;68.24
61474;BME280;53694;49.784;30.150;2023-02-13T01:10:37;101030.22;;;-2.82;68.29
61474;BME280;53694;49.784;30.150;2023-02-13T01:11:39;101044.73;;;-2.83;68.31
61474;BME280;53694;49.784;30.150;2023-02-13T01:12:41;101043.91;;;-2.83;68.38
61474;BME280;53694;49.784;30.150;2023-02-13T01:13:42;101052.20;;;-2.85;68.40
61474;BME280;53694;49.784;30.150;2023-02-13T01:14:44;101042.50;;;-2.86;68.52
61474;BME280;53694;49.784;30.150;2023-02-13T01:15:46;101048.13;;;-2.87;68.56
61474;BME280;53694;49.784;30.150;2023-02-13T01:16:48;101046.50;;;-2.88;68.62
61474;BME280;53694;49.784;30.150;2023-02-13T01:17:52;101043.22;;;-2.90;68.71
61474;BME280;53694;49.784;30.150;2023-02-13T01:18:54;101035.41;;;-2.92;68.78
61474;BME280;53694;49.784;30.150;2023-02-13T01:19:56;101044.53;;;-2.93;68.86
61474;BME280;53694;49.784;30.150;2023-02-13T01:21:00;101039.38;;;-2.94;68.92
61474;BME280;53694;49.784;30.150;2023-02-13T01:22:02;101037.75;;;-2.95;69.06
61474;BME280;53694;49.784;30.150;2023-02-13T01:23:04;101040.68;;;-2.97;69.08
61474;BME280;53694;49.784;30.150;2023-02-13T01:24:06;101035.52;;;-2.98;69.18
61474;BME280;53694;49.784;30.150;2023-02-13T01:25:07;101036.58;;;-2.99;69.36
61474;BME280;53694;49.784;30.150;2023-02-13T01:26:18;101034.36;;;-3.03;69.30
61474;BME280;53694;49.784;30.150;2023-02-13T01:27:20;101035.42;;;-3.04;69.41
61474;BME280;53694;49.784;30.150;2023-02-13T01:28:22;101034.02;;;-3.06;69.54
61474;BME280;53694;49.784;30.150;2023-02-13T01:29:23;101034.02;;;-3.06;69.54
61474;BME280;53694;49.784;30.150;2023-02-13T01:30:25;101030.76;;;-3.08;69.66
61474;BME280;53694;49.784;30.150;2023-02-13T01:31:27;101027.26;;;-3.09;69.80
61474;BME280;53694;49.784;30.150;2023-02-13T01:32:28;101028.32;;;-3.10;69.76
61474;BME280;53694;49.784;30.150;2023-02-13T01:33:30;101035.78;;;-3.12;69.85
61474;BME280;53694;49.784;30.150;2023-02-13T01:34:32;101032.28;;;-3.12;69.92
61474;BME280;53694;49.784;30.150;2023-02-13T01:35:33;101030.06;;;-3.15;70.00
61474;BME280;53694;49.784;30.150;2023-02-13T01:36:35;101034.63;;;-3.16;70.08
61474;BME280;53694;49.784;30.150;2023-02-13T01:37:37;101019.56;;;-3.17;70.21
61474;BME280;53694;49.784;30.150;2023-02-13T01:38:39;101029.71;;;-3.19;70.26
61474;BME280;53694;49.784;30.150;2023-02-13T01:39:40;101033.34;;;-3.13;70.32
61474;BME280;53694;49.784;30.150;2023-02-13T01:40:47;101036.68;;;-2.94;70.00
61474;BME280;53694;49.784;30.150;2023-02-13T01:41:49;101023.03;;;-2.64;69.33
61474;BME280;53694;49.784;30.150;2023-02-13T01:42:50;101038.06;;;-2.23;68.30
61474;BME280;53694;49.784;30.150;2023-02-13T01:43:59;101020.32;;;-1.90;67.22
61474;BME280;53694;49.784;30.150;2023-02-13T01:45:04;101030.84;;;-1.72;66.35
61474;BME280;53694;49.784;30.150;2023-02-13T01:46:06;101035.74;;;-1.69;65.62
61474;BME280;53694;49.784;30.150;2023-02-13T01:47:09;101028.62;;;-1.75;65.38
61474;BME280;53694;49.784;30.150;2023-02-13T01:48:15;101028.48;;;-1.85;65.46
61474;BME280;53694;49.784;30.150;2023-02-13T01:49:20;101023.41;;;-1.98;65.64
61474;BME280;53694;49.784;30.150;2023-02-13T01:50:38;101024.21;;;-2.15;65.92
61474;BME280;53694;49.784;30.150;2023-02-13T01:51:40;101023.93;;;-2.30;66.31
61474;BME280;53694;49.784;30.150;2023-02-13T01:52:46;101023.33;;;-2.49;66.83
61474;BME280;53694;49.784;30.150;2023-02-13T01:54:11;101025.50;;;-2.63;67.32
61474;BME280;53694;49.784;30.150;2023-02-13T01:55:09;101030.31;;;-2.77;67.72
61474;BME280;53694;49.784;30.150;2023-02-13T01:56:23;101030.84;;;-2.91;68.24
61474;BME280;53694;49.784;30.150;2023-02-13T01:57:23;101026.89;;;-3.00;68.74
61474;BME280;53694;49.784;30.150;2023-02-13T01:58:29;101019.66;;;-3.12;69.09
61474;BME280;53694;49.784;30.150;2023-02-13T01:59:37;101028.89;;;-3.19;69.44
61474;BME280;53694;49.784;30.150;2023-02-13T02:00:40;101024.73;;;-3.27;69.72
61474;BME280;53694;49.784;30.150;2023-02-13T02:01:43;101021.34;;;-3.34;70.12
61474;BME280;53694;49.784;30.150;2023-02-13T02:02:51;101020.63;;;-3.41;70.26
61474;BME280;53694;49.784;30.150;2023-02-13T02:03:56;101026.70;;;-3.46;70.52
61474;BME280;53694;49.784;30.150;2023-02-13T02:05:00;101020.63;;;-3.41;70.58
61474;BME280;53694;49.784;30.150;2023-02-13T02:06:04;101021.89;;;-3.20;70.37
61474;BME280;53694;49.784;30.150;2023-02-13T02:07:13;101021.49;;;-2.89;69.55
61474;BME280;53694;49.784;30.150;2023-02-13T02:08:13;101012.82;;;-2.50;68.55
61474;BME280;53694;49.784;30.150;2023-02-13T02:09:18;101013.78;;;-2.11;67.23
61474;BME280;53694;49.784;30.150;2023-02-13T02:10:21;101008.08;;;-1.81;65.97
61474;BME280;53694;49.784;30.150;2023-02-13T02:12:27;101014.19;;;-1.69;65.05
61474;BME280;53694;49.784;30.150;2023-02-13T02:12:41;101015.81;;;-1.68;64.63
61474;BME280;53694;49.784;30.150;2023-02-13T02:13:43;101007.00;;;-1.80;64.50
61474;BME280;53694;49.784;30.150;2023-02-13T02:14:46;101010.28;;;-1.95;64.71
61474;BME280;53694;49.784;30.150;2023-02-13T02:15:49;101004.30;;;-2.14;65.03
61474;BME280;53694;49.784;30.150;2023-02-13T02:16:51;101007.23;;;-2.32;65.48
61474;BME280;53694;49.784;30.150;2023-02-13T02:17:52;101009.87;;;-2.49;65.92
61474;BME280;53694;49.784;30.150;2023-02-13T02:18:54;101004.20;;;-2.64;66.43
61474;BME280;53694;49.784;30.150;2023-02-13T02:21:47;101016.34;;;-2.90;67.33
61474;BME280;53694;49.784;30.150;2023-02-13T02:25:51;101011.65;;;-3.35;69.03
61474;BME280;53694;49.784;30.150;2023-02-13T02:28:33;101014.69;;;-3.55;70.00
61474;BME280;53694;49.784;30.150;2023-02-13T02:33:45;101006.84;;;-3.33;70.51
61474;BME280;53694;49.784;30.150;2023-02-13T02:36:05;101012.93;;;-2.86;69.34
61474;BME280;53694;49.784;30.150;2023-02-13T02:42:09;101015.12;;;-1.41;62.99
61474;BME280;53694;49.784;30.150;2023-02-13T02:43:32;101016.37;;;-1.66;63.36
61474;BME280;53694;49.784;30.150;2023-02-13T02:47:04;101010.44;;;-2.47;65.28
61474;BME280;53694;49.784;30.150;2023-02-13T02:48:05;101010.64;;;-2.65;65.94
61474;BME280;53694;49.784;30.150;2023-02-13T02:49:12;100999.27;;;-2.84;66.51
61474;BME280;53694;49.784;30.150;2023-02-13T02:50:24;101009.95;;;-3.01;67.09
61474;BME280;53694;49.784;30.150;2023-02-13T02:51:32;101004.84;;;-3.14;67.68
61474;BME280;53694;49.784;30.150;2023-02-13T02:54:58;101006.28;;;-3.47;69.28
61474;BME280;53694;49.784;30.150;2023-02-13T02:57:21;101000.34;;;-3.61;70.02
61474;BME280;53694;49.784;30.150;2023-02-13T02:58:40;100993.45;;;-3.68;70.41
61474;BME280;53694;49.784;30.150;2023-02-13T02:59:39;100999.52;;;-3.73;70.63
61474;BME280;53694;49.784;30.150;2023-02-13T03:00:43;100993.20;;;-3.67;70.90
61474;BME280;53694;49.784;30.150;2023-02-13T03:01:46;100991.55;;;-3.44;70.66
61474;BME280;53694;49.784;30.150;2023-02-13T03:02:49;100996.07;;;-3.10;70.01
61474;BME280;53694;49.784;30.150;2023-02-13T03:03:51;100997.92;;;-2.70;68.99
61474;BME280;53694;49.784;30.150;2023-02-13T03:04:56;100992.23;;;-2.28;68.00
61474;BME280;53694;49.784;30.150;2023-02-13T03:06:01;100999.89;;;-1.53;65.47
61474;BME280;53694;49.784;30.150;2023-02-13T03:07:06;100999.89;;;-1.53;65.47
61474;BME280;53694;49.784;30.150;2023-02-13T03:08:10;100999.86;;;-1.36;63.66
61474;BME280;53694;49.784;30.150;2023-02-13T03:09:18;100999.86;;;-1.36;63.66
61474;BME280;53694;49.784;30.150;2023-02-13T03:10:26;100995.64;;;-1.48;63.72
61474;BME280;53694;49.784;30.150;2023-02-13T03:11:26;100992.66;;;-1.86;64.45
61474;BME280;53694;49.784;30.150;2023-02-13T03:12:48;100992.66;;;-1.86;64.45
61474;BME280;53694;49.784;30.150;2023-02-13T03:13:50;100991.26;;;-2.05;64.64
61474;BME280;53694;49.784;30.150;2023-02-13T03:14:53;100994.58;;;-2.32;65.28
61474;BME280;53694;49.784;30.150;2023-02-13T03:15:57;100991.86;;;-2.48;65.82
61474;BME280;53694;49.784;30.150;2023-02-13T03:17:01;100985.16;;;-2.63;66.32
61474;BME280;53694;49.784;30.150;2023-02-13T03:18:03;100989.67;;;-2.80;66.85
61474;BME280;53694;49.784;30.150;2023-02-13T03:20:11;100998.23;;;-2.95;67.38
61474;BME280;53694;49.784;30.150;2023-02-13T03:20:31;100993.13;;;-3.08;67.89
61474;BME280;53694;49.784;30.150;2023-02-13T03:21:52;100990.93;;;-3.23;68.45
61474;BME280;53694;49.784;30.150;2023-02-13T03:23:15;100994.47;;;-3.34;68.95
61474;BME280;53694;49.784;30.150;2023-02-13T03:26:49;100986.77;;;-3.66;70.40
61474;BME280;53694;49.784;30.150;2023-02-13T03:28:05;100985.61;;;-3.70;70.85
61474;BME280;53694;49.784;30.150;2023-02-13T03:34:20;100983.91;;;-2.10;67.42
61474;BME280;53694;49.784;30.150;2023-02-13T03:37:00;100985.93;;;-1.66;64.84
61474;BME280;53694;49.784;30.150;2023-02-13T03:38:07;100988.74;;;-1.78;64.61
61474;BME280;53694;49.784;30.150;2023-02-13T03:39:23;100981.63;;;-2.01;64.96
61474;BME280;53694;49.784;30.150;2023-02-13T03:40:38;100988.61;;;-2.50;65.98
61474;BME280;53694;49.784;30.150;2023-02-13T03:41:46;100988.61;;;-2.50;65.98
61474;BME280;53694;49.784;30.150;2023-02-13T03:42:54;100978.41;;;-2.77;66.88
61474;BME280;53694;49.784;30.150;2023-02-13T03:45:31;100979.50;;;-3.18;68.35
61474;BME280;53694;49.784;30.150;2023-02-13T03:46:36;100971.47;;;-3.42;69.26
61474;BME280;53694;49.784;30.150;2023-02-13T03:47:40;100977.34;;;-3.57;69.85
61474;BME280;53694;49.784;30.150;2023-02-13T03:48:43;100974.66;;;-3.68;70.59
61474;BME280;53694;49.784;30.150;2023-02-13T03:49:46;100969.28;;;-3.80;71.17
61474;BME280;53694;49.784;30.150;2023-02-13T03:50:50;100964.50;;;-3.90;71.67
61474;BME280;53694;49.784;30.150;2023-02-13T03:51:55;100972.31;;;-3.88;71.98
61474;BME280;53694;49.784;30.150;2023-02-13T03:53:11;100966.24;;;-3.72;71.98
61474;BME280;53694;49.784;30.150;2023-02-13T03:54:26;100959.09;;;-3.43;71.50
61474;BME280;53694;49.784;30.150;2023-02-13T03:55:34;100961.71;;;-2.50;68.98
61474;BME280;53694;49.784;30.150;2023-02-13T03:56:38;100961.71;;;-2.50;68.98
61474;BME280;53694;49.784;30.150;2023-02-13T03:57:43;100964.59;;;-2.07;67.81
61474;BME280;53694;49.784;30.150;2023-02-13T03:58:52;100967.75;;;-1.76;66.78
61474;BME280;53694;49.784;30.150;2023-02-13T03:59:51;100963.34;;;-1.65;65.84
61474;BME280;53694;49.784;30.150;2023-02-13T04:00:56;100956.81;;;-1.69;65.39
61474;BME280;53694;49.784;30.150;2023-02-13T04:03:22;100951.69;;;-2.05;65.76
61474;BME280;53694;49.784;30.150;2023-02-13T04:04:37;100954.55;;;-2.28;66.28
61474;BME280;53694;49.784;30.150;2023-02-13T04:05:43;100951.91;;;-2.57;67.18
61474;BME280;53694;49.784;30.150;2023-02-13T04:07:01;100952.50;;;-2.83;68.00
61474;BME280;53694;49.784;30.150;2023-02-13T04:08:04;100956.59;;;-3.21;69.54
61474;BME280;53694;49.784;30.150;2023-02-13T04:09:06;100956.59;;;-3.21;69.54
61474;BME280;53694;49.784;30.150;2023-02-13T04:10:15;100953.58;;;-3.36;70.08
61474;BME280;53694;49.784;30.150;2023-02-13T04:11:17;100946.38;;;-3.47;70.73
61474;BME280;53694;49.784;30.150;2023-02-13T04:12:22;100959.81;;;-3.59;71.33
61474;BME280;53694;49.784;30.150;2023-02-13T04:13:34;100955.72;;;-3.62;71.76
61474;BME280;53694;49.784;30.150;2023-02-13T04:14:57;100958.09;;;-3.13;71.40
61474;BME280;53694;49.784;30.150;2023-02-13T04:16:15;100958.09;;;-3.13;71.40
61474;BME280;53694;49.784;30.150;2023-02-13T04:17:23;100954.17;;;-2.65;70.24
61474;BME280;53694;49.784;30.150;2023-02-13T04:18:28;100951.28;;;-2.13;68.75
61474;BME280;53694;49.784;30.150;2023-02-13T04:19:32;100954.35;;;-1.71;67.55
61474;BME280;53694;49.784;30.150;2023-02-13T04:20:34;100954.59;;;-1.34;66.17
61474;BME280;53694;49.784;30.150;2023-02-13T04:21:38;100957.61;;;-1.08;65.03
61474;BME280;53694;49.784;30.150;2023-02-13T04:22:45;100957.44;;;-1.02;64.29
61474;BME280;53694;49.784;30.150;2023-02-13T04:23:47;100955.17;;;-1.10;64.02
61474;BME280;53694;49.784;30.150;2023-02-13T04:24:49;100959.81;;;-1.27;64.17
61474;BME280;53694;49.784;30.150;2023-02-13T04:25:53;100946.30;;;-1.49;64.42
61474;BME280;53694;49.784;30.150;2023-02-13T04:26:56;100951.80;;;-1.99;65.79
61474;BME280;53694;49.784;30.150;2023-02-13T04:27:58;100951.80;;;-1.99;65.79
61474;BME280;53694;49.784;30.150;2023-02-13T04:28:59;100946.56;;;-2.23;66.46
61474;BME280;53694;49.784;30.150;2023-02-13T04:30:01;100948.34;;;-2.45;67.24
61474;BME280;53694;49.784;30.150;2023-02-13T04:31:03;100951.73;;;-2.67;67.98
61474;BME280;53694;49.784;30.150;2023-02-13T04:32:04;100950.28;;;-2.86;68.74
61474;BME280;53694;49.784;30.150;2023-02-13T04:33:06;100943.79;;;-3.02;69.41
61474;BME280;53694;49.784;30.150;2023-02-13T04:34:07;100949.44;;;-3.15;70.08
61474;BME280;53694;49.784;30.150;2023-02-13T04:35:09;100955.91;;;-3.28;70.74
61474;BME280;53694;49.784;30.150;2023-02-13T04:36:12;100951.95;;;-3.37;71.25
61474;BME280;53694;49.784;30.150;2023-02-13T04:37:13;100943.09;;;-3.38;71.65
61474;BME280;53694;49.784;30.150;2023-02-13T04:38:15;100944.22;;;-3.22;71.73
61474;BME280;53694;49.784;30.150;2023-02-13T04:39:16;100950.44;;;-2.93;71.34
61474;BME280;53694;49.784;30.150;2023-02-13T04:40:18;100943.84;;;-2.57;70.70
61474;BME280;53694;49.784;30.150;2023-02-13T04:41:20;100940.19;;;-2.17;69.66
61474;BME280;53694;49.784;30.150;2023-02-13T04:42:21;100945.72;;;-1.73;68.52
61474;BME280;53694;49.784;30.150;2023-02-13T04:43:23;100947.09;;;-1.32;67.23
61474;BME280;53694;49.784;30.150;2023-02-13T04:44:25;100948.27;;;-1.01;66.10
61474;BME280;53694;49.784;30.150;2023-02-13T04:45:26;100942.48;;;-0.87;65.09
61474;BME280;53694;49.784;30.150;2023-02-13T04:46:28;100944.60;;;-0.89;64.60
61474;BME280;53694;49.784;30.150;2023-02-13T04:47:30;100941.25;;;-1.02;64.64
61474;BME280;53694;49.784;30.150;2023-02-13T04:48:31;100948.02;;;-1.21;64.80
61474;BME280;53694;49.784;30.150;2023-02-13T04:49:33;100952.02;;;-1.45;65.36
61474;BME280;53694;49.784;30.150;2023-02-13T04:50:35;100944.72;;;-1.67;66.04
61474;BME280;53694;49.784;30.150;2023-02-13T04:51:36;100942.79;;;-1.88;66.77
61474;BME280;53694;49.784;30.150;2023-02-13T04:52:38;100952.76;;;-2.06;67.48
61474;BME280;53694;49.784;30.150;2023-02-13T04:53:39;100947.04;;;-2.26;68.21
61474;BME280;53694;49.784;30.150;2023-02-13T04:54:41;100944.11;;;-2.41;68.92
61474;BME280;53694;49.784;30.150;2023-02-13T04:55:42;100933.08;;;-2.57;69.60
61474;BME280;53694;49.784;30.150;2023-02-13T04:56:44;100939.32;;;-2.68;70.17
61474;BME280;53694;49.784;30.150;2023-02-13T04:57:45;100937.27;;;-2.78;70.79
61474;BME280;53694;49.784;30.150;2023-02-13T04:58:47;100933.59;;;-2.88;71.35
61474;BME280;53694;49.784;30.150;2023-02-13T04:59:48;100933.59;;;-2.88;71.73
61474;BME280;53694;49.784;30.150;2023-02-13T05:00:50;100941.11;;;-2.73;71.93
61474;BME280;53694;49.784;30.150;2023-02-13T05:01:51;100940.75;;;-2.48;71.56
61474;BME280;53694;49.784;30.150;2023-02-13T05:02:53;100944.53;;;-2.16;70.91
61474;BME280;53694;49.784;30.150;2023-02-13T05:03:56;100941.08;;;-1.78;69.99
61474;BME280;53694;49.784;30.150;2023-02-13T05:04:58;100939.44;;;-1.40;68.86
61474;BME280;53694;49.784;30.150;2023-02-13T05:06:00;100942.06;;;-1.01;68.02
61474;BME280;53694;49.784;30.150;2023-02-13T05:07:01;100937.26;;;-0.72;66.92
61474;BME280;53694;49.784;30.150;2023-02-13T05:08:04;100938.73;;;-0.59;65.83
61474;BME280;53694;49.784;30.150;2023-02-13T05:09:06;100940.55;;;-0.65;65.46
61474;BME280;53694;49.784;30.150;2023-02-13T05:10:09;100935.02;;;-0.80;65.67
61474;BME280;53694;49.784;30.150;2023-02-13T05:11:11;100942.37;;;-0.97;66.02
61474;BME280;53694;49.784;30.150;2023-02-13T05:12:13;100938.05;;;-1.20;66.54
61474;BME280;53694;49.784;30.150;2023-02-13T05:13:14;100939.67;;;-1.41;67.18
61474;BME280;53694;49.784;30.150;2023-02-13T05:14:16;100945.85;;;-1.63;67.90
61474;BME280;53694;49.784;30.150;2023-02-13T05:15:17;100947.20;;;-1.82;68.57
61474;BME280;53694;49.784;30.150;2023-02-13T05:16:19;100942.65;;;-1.98;69.35
61474;BME280;53694;49.784;30.150;2023-02-13T05:17:21;100943.21;;;-2.13;70.00
61474;BME280;53694;49.784;30.150;2023-02-13T05:18:22;100946.23;;;-2.27;70.65
61474;BME280;53694;49.784;30.150;2023-02-13T05:19:24;100943.60;;;-2.38;71.30
61474;BME280;53694;49.784;30.150;2023-02-13T05:20:25;100936.91;;;-2.53;72.08
61474;BME280;53694;49.784;30.150;2023-02-13T05:21:27;100939.27;;;-2.56;72.47
61474;BME280;53694;49.784;30.150;2023-02-13T05:22:28;100937.08;;;-2.42;72.51
61474;BME280;53694;49.784;30.150;2023-02-13T05:23:30;100952.61;;;-2.16;72.32
61474;BME280;53694;49.784;30.150;2023-02-13T05:24:31;100952.59;;;-1.82;71.47
61474;BME280;53694;49.784;30.150;2023-02-13T05:25:33;100955.22;;;-1.48;70.58
61474;BME280;53694;49.784;30.150;2023-02-13T05:26:35;100952.48;;;-1.10;69.79
61474;BME280;53694;49.784;30.150;2023-02-13T05:27:37;100944.28;;;-0.71;68.51
61474;BME280;53694;49.784;30.150;2023-02-13T05:28:39;100947.57;;;-0.37;67.34
61474;BME280;53694;49.784;30.150;2023-02-13T05:29:40;100948.02;;;-0.13;66.26
61474;BME280;53694;49.784;30.150;2023-02-13T05:30:42;100946.50;;;-0.04;65.82
61474;BME280;53694;49.784;30.150;2023-02-13T05:31:46;100938.09;;;-0.07;65.46
61474;BME280;53694;49.784;30.150;2023-02-13T05:32:47;100932.83;;;-0.24;65.43
61474;BME280;53694;49.784;30.150;2023-02-13T05:33:49;100940.75;;;-0.44;65.77
61474;BME280;53694;49.784;30.150;2023-02-13T05:34:50;100937.54;;;-0.68;66.40
61474;BME280;53694;49.784;30.150;2023-02-13T05:35:52;100941.36;;;-0.91;67.11
61474;BME280;53694;49.784;30.150;2023-02-13T05:36:54;100944.89;;;-1.13;67.80
61474;BME280;53694;49.784;30.150;2023-02-13T05:37:55;100940.58;;;-1.36;68.64
61474;BME280;53694;49.784;30.150;2023-02-13T05:38:57;100930.33;;;-1.56;69.40
61474;BME280;53694;49.784;30.150;2023-02-13T05:39:59;100941.95;;;-1.72;70.16
61474;BME280;53694;49.784;30.150;2023-02-13T05:41:01;100935.30;;;-1.86;70.91
61474;BME280;53694;49.784;30.150;2023-02-13T05:42:03;100943.13;;;-2.02;71.69
61474;BME280;53694;49.784;30.150;2023-02-13T05:43:04;100927.97;;;-2.08;72.36
61474;BME280;53694;49.784;30.150;2023-02-13T05:44:06;100932.44;;;-1.96;72.55
61474;BME280;53694;49.784;30.150;2023-02-13T05:45:09;100937.38;;;-1.71;72.24
61474;BME280;53694;49.784;30.150;2023-02-13T05:46:11;100937.30;;;-1.38;71.82
61474;BME280;53694;49.784;30.150;2023-02-13T05:47:12;100932.09;;;-1.01;70.76
61474;BME280;53694;49.784;30.150;2023-02-13T05:48:14;100933.03;;;-0.63;69.79
61474;BME280;53694;49.784;30.150;2023-02-13T05:49:16;100927.64;;;-0.31;68.23
61474;BME280;53694;49.784;30.150;2023-02-13T05:50:18;100929.52;;;0.01;67.46
61474;BME280;53694;49.784;30.150;2023-02-13T05:51:20;100935.33;;;0.25;66.45
61474;BME280;53694;49.784;30.150;2023-02-13T05:52:22;100925.63;;;0.29;65.69
61474;BME280;53694;49.784;30.150;2023-02-13T05:53:23;100927.71;;;0.17;65.63
61474;BME280;53694;49.784;30.150;2023-02-13T05:54:25;100924.36;;;-0.01;66.00
61474;BME280;53694;49.784;30.150;2023-02-13T05:55:26;100920.41;;;-0.25;66.44
61474;BME280;53694;49.784;30.150;2023-02-13T05:56:28;100923.44;;;-0.48;67.15
61474;BME280;53694;49.784;30.150;2023-02-13T05:57:30;100924.27;;;-0.75;67.94
61474;BME280;53694;49.784;30.150;2023-02-13T05:58:32;100923.50;;;-0.97;68.87
61474;BME280;53694;49.784;30.150;2023-02-13T05:59:34;100927.27;;;-1.20;69.68
61474;BME280;53694;49.784;30.150;2023-02-13T06:00:36;100929.96;;;-1.42;70.59
61474;BME280;53694;49.784;30.150;2023-02-13T06:01:37;100937.28;;;-1.60;71.51
61474;BME280;53694;49.784;30.150;2023-02-13T06:02:39;100932.48;;;-1.74;72.30
61474;BME280;53694;49.784;30.150;2023-02-13T06:03:40;100934.30;;;-1.80;72.83